Time;durP1;ratioP1;P1;durP2;ratioP2;P2;SDS_P1;SDS_P2;PMS_P1;PMS_P2;Temp;Humidity;BMP_temperature;BMP_pressure;BME280_temperature;BME280_humidity;BME280_pressure;Samples;Min_cycle;Max_cycle;Signal;HPM_P1;HPM_P2
2022/12/21 00:00:50;;;;;;;;;;;17.80;99.90;;;;;;5058894;28;19909;-80
2022/12/21 00:03:16;;;;;;;;;;;17.80;99.90;;;;;;5054072;28;20390;-78
2022/12/21 00:05:42;;;;;;;;;;;18.00;99.90;;;;;;5056462;28;19948;-75
2022/12/21 00:08:07;;;;;;;;;;;17.80;99.90;;;;;;5044833;28;19920;-77
2022/12/21 00:10:33;;;;;;;;;;;17.70;99.90;;;;;;5053637;28;19909;-76
2022/12/21 00:12:58;;;;;;;;;;;17.70;99.90;;;;;;5050095;28;19912;-76
2022/12/21 00:15:24;;;;;;;;;;;17.50;99.90;;;;;;5043747;28;19924;-78
2022/12/21 00:17:49;;;;;;;;;;;17.20;99.90;;;;;;5057542;28;19936;-75
2022/12/21 00:20:15;;;;;;;;;;;16.90;99.90;;;;;;5047714;28;19981;-78
2022/12/21 00:22:40;;;;;;;;;;;17.00;99.90;;;;;;5051654;28;19913;-79
2022/12/21 00:25:06;;;;;;;;;;;16.90;99.90;;;;;;5049394;28;20463;-78
2022/12/21 00:27:31;;;;;;;;;;;16.50;99.90;;;;;;5053412;28;19908;-77
2022/12/21 00:29:57;;;;;;;;;;;16.50;99.90;;;;;;5050519;28;19910;-77
2022/12/21 00:32:22;;;;;;;;;;;16.50;99.90;;;;;;5044522;28;19988;-77
2022/12/21 00:34:48;;;;;;;;;;;16.50;99.90;;;;;;5039801;28;20550;-77
2022/12/21 00:37:13;;;;;;;;;;;16.40;99.90;;;;;;5047500;28;19909;-77
2022/12/21 00:39:39;;;;;;;;;;;16.20;99.90;;;;;;5052155;28;20327;-78
2022/12/21 00:42:05;;;;;;;;;;;16.10;99.90;;;;;;5041364;28;19913;-77
2022/12/21 00:44:30;;;;;;;;;;;16.00;99.90;;;;;;5036589;28;19912;-77
2022/12/21 00:46:56;;;;;;;;;;;15.90;99.90;;;;;;5041618;28;19928;-78
2022/12/21 00:49:21;;;;;;;;;;;15.80;99.90;;;;;;5043428;28;19937;-77
2022/12/21 00:51:47;;;;;;;;;;;15.90;99.90;;;;;;5048423;28;19935;-78
2022/12/21 00:54:12;;;;;;;;;;;15.90;99.90;;;;;;5049860;28;19951;-78
2022/12/21 00:56:38;;;;;;;;;;;15.70;99.90;;;;;;5043125;28;19932;-77
2022/12/21 00:59:03;;;;;;;;;;;15.40;99.90;;;;;;5045544;28;19920;-77
2022/12/21 01:01:31;;;;;;;;;;;15.30;99.90;;;;;;5054345;28;19912;-77
2022/12/21 01:03:57;;;;;;;;;;;15.20;99.90;;;;;;5051659;28;19917;-77
2022/12/21 01:06:23;;;;;;;;;;;15.20;99.90;;;;;;5045932;28;19932;-77
2022/12/21 01:08:49;;;;;;;;;;;15.20;99.90;;;;;;5051031;28;19940;-77
2022/12/21 01:11:15;;;;;;;;;;;15.10;99.90;;;;;;5049524;28;19913;-77
2022/12/21 01:13:41;;;;;;;;;;;15.10;99.90;;;;;;5049932;28;19913;-77
2022/12/21 01:16:11;;;;;;;;;;;14.90;99.90;;;;;;5060006;28;20011;-77
2022/12/21 01:18:36;;;;;;;;;;;14.80;99.90;;;;;;5062655;28;19912;-77
2022/12/21 01:21:01;;;;;;;;;;;14.70;99.90;;;;;;5059523;28;19948;-77
2022/12/21 01:23:27;;;;;;;;;;;14.70;99.90;;;;;;5046238;28;19909;-77
2022/12/21 01:25:52;;;;;;;;;;;14.60;99.90;;;;;;5044650;28;19905;-76
2022/12/21 01:28:18;;;;;;;;;;;14.50;99.90;;;;;;5059386;28;19916;-77
2022/12/21 01:30:44;;;;;;;;;;;14.40;99.90;;;;;;5054752;28;19916;-77
2022/12/21 01:33:13;;;;;;;;;;;14.30;99.90;;;;;;5059945;28;19996;-77
2022/12/21 01:35:40;;;;;;;;;;;14.30;99.90;;;;;;5061329;28;19917;-77
2022/12/21 01:38:05;;;;;;;;;;;14.30;99.90;;;;;;5054874;28;19909;-77
2022/12/21 01:40:31;;;;;;;;;;;14.20;99.90;;;;;;5049018;28;20434;-77
2022/12/21 01:42:56;;;;;;;;;;;14.30;99.90;;;;;;5043326;28;19936;-77
2022/12/21 01:45:23;;;;;;;;;;;14.10;99.90;;;;;;5055134;28;19934;-77
2022/12/21 01:48:12;;;;;;;;;;;14.10;99.90;;;;;;5055339;28;19917;-78
2022/12/21 01:50:54;;;;;;;;;;;13.90;99.90;;;;;;5060994;28;19920;-77
2022/12/21 01:53:25;;;;;;;;;;;13.90;99.90;;;;;;5049745;28;19948;-77
2022/12/21 01:55:52;;;;;;;;;;;14.10;99.90;;;;;;5055241;28;19925;-77
2022/12/21 01:58:18;;;;;;;;;;;14.00;99.90;;;;;;5051099;28;19978;-77
2022/12/21 02:00:44;;;;;;;;;;;13.80;99.90;;;;;;5052165;28;19932;-77
2022/12/21 02:03:12;;;;;;;;;;;14.00;99.90;;;;;;5053997;28;20019;-77
2022/12/21 02:05:38;;;;;;;;;;;14.10;99.90;;;;;;5054331;28;19959;-77
2022/12/21 02:08:04;;;;;;;;;;;14.10;99.90;;;;;;5055387;28;19901;-77
2022/12/21 02:10:30;;;;;;;;;;;13.90;99.90;;;;;;5054181;28;20334;-76
2022/12/21 02:13:00;;;;;;;;;;;14.20;99.90;;;;;;5056955;28;19976;-76
2022/12/21 02:15:31;;;;;;;;;;;14.10;99.90;;;;;;5049516;28;20330;-77
2022/12/21 02:18:02;;;;;;;;;;;14.10;99.90;;;;;;5054174;28;19978;-78
2022/12/21 02:20:40;;;;;;;;;;;14.00;99.90;;;;;;5059567;28;19980;-77
2022/12/21 02:23:26;;;;;;;;;;;14.20;99.90;;;;;;5049818;28;19912;-76
2022/12/21 02:25:57;;;;;;;;;;;13.90;99.90;;;;;;5049471;28;19993;-77
2022/12/21 02:28:37;;;;;;;;;;;14.00;99.90;;;;;;5046110;28;19913;-75
2022/12/21 02:31:22;;;;;;;;;;;13.90;99.90;;;;;;5050348;28;19970;-77
2022/12/21 02:33:53;;;;;;;;;;;14.00;99.90;;;;;;5046943;28;19913;-77
2022/12/21 02:36:28;;;;;;;;;;;13.90;99.90;;;;;;5046051;28;20027;-77
2022/12/21 02:39:11;;;;;;;;;;;14.10;99.90;;;;;;5042870;28;19960;-77
2022/12/21 02:41:40;;;;;;;;;;;13.90;99.90;;;;;;5037438;28;20327;-77
2022/12/21 02:44:16;;;;;;;;;;;14.00;99.90;;;;;;5035770;28;19909;-77
2022/12/21 02:46:53;;;;;;;;;;;13.80;99.90;;;;;;5048015;28;19963;-76
2022/12/21 02:49:19;;;;;;;;;;;13.80;99.90;;;;;;5048293;28;19924;-77
2022/12/21 02:51:50;;;;;;;;;;;13.90;99.90;;;;;;5052703;28;19912;-77
2022/12/21 02:54:16;;;;;;;;;;;13.90;99.90;;;;;;5051178;28;19932;-78
2022/12/21 02:56:41;;;;;;;;;;;13.90;99.90;;;;;;5046941;28;19917;-77
2022/12/21 02:59:08;;;;;;;;;;;13.80;99.90;;;;;;5036098;28;19967;-77
2022/12/21 03:01:40;;;;;;;;;;;14.00;99.90;;;;;;5034457;28;19968;-77
2022/12/21 03:04:10;;;;;;;;;;;13.90;99.90;;;;;;5045194;28;19917;-77
2022/12/21 03:06:51;;;;;;;;;;;13.90;99.90;;;;;;5039647;28;19916;-77
2022/12/21 03:09:35;;;;;;;;;;;13.90;99.90;;;;;;5038906;28;19974;-77
2022/12/21 03:12:13;;;;;;;;;;;14.00;99.90;;;;;;5042094;28;20005;-75
2022/12/21 03:14:38;;;;;;;;;;;13.90;99.90;;;;;;5035352;28;20731;-77
2022/12/21 03:17:16;;;;;;;;;;;14.10;99.90;;;;;;5035795;28;19956;-77
2022/12/21 03:20:00;;;;;;;;;;;14.20;99.90;;;;;;5038423;28;19982;-77
2022/12/21 03:22:31;;;;;;;;;;;14.10;99.90;;;;;;5039329;28;19909;-77
2022/12/21 03:25:01;;;;;;;;;;;13.90;99.90;;;;;;5043946;28;20157;-77
2022/12/21 03:27:32;;;;;;;;;;;14.10;99.90;;;;;;5049693;28;19917;-78
2022/12/21 03:30:03;;;;;;;;;;;13.90;99.90;;;;;;5050149;28;19912;-77
2022/12/21 03:32:37;;;;;;;;;;;13.90;99.90;;;;;;5046194;28;20372;-75
2022/12/21 03:35:05;;;;;;;;;;;13.90;99.90;;;;;;5037188;28;19917;-77
2022/12/21 03:37:33;;;;;;;;;;;14.20;99.90;;;;;;5048502;28;19921;-77
2022/12/21 03:40:07;;;;;;;;;;;13.90;99.90;;;;;;5036682;28;20382;-76
2022/12/21 03:42:34;;;;;;;;;;;14.00;99.90;;;;;;5039290;28;19936;-77
2022/12/21 03:45:04;;;;;;;;;;;13.90;99.90;;;;;;5038241;28;20486;-75
2022/12/21 03:47:32;;;;;;;;;;;14.00;99.90;;;;;;5041488;28;19909;-76
2022/12/21 03:50:00;;;;;;;;;;;14.00;99.90;;;;;;5039609;28;20310;-75
2022/12/21 03:52:32;;;;;;;;;;;13.90;99.90;;;;;;5029940;28;19917;-77
2022/12/21 03:55:03;;;;;;;;;;;13.70;99.90;;;;;;5040849;28;19966;-76
2022/12/21 03:57:29;;;;;;;;;;;13.70;99.90;;;;;;5040245;28;19948;-76
2022/12/21 03:59:56;;;;;;;;;;;13.70;99.90;;;;;;5043557;28;19948;-78
2022/12/21 04:02:27;;;;;;;;;;;13.70;99.90;;;;;;5041705;28;20713;-78
2022/12/21 04:04:59;;;;;;;;;;;13.50;99.90;;;;;;5045843;28;19921;-78
2022/12/21 04:07:25;;;;;;;;;;;13.40;99.90;;;;;;5042123;28;19920;-77
2022/12/21 04:09:55;;;;;;;;;;;13.40;99.90;;;;;;5049252;28;20286;-77
2022/12/21 04:12:36;;;;;;;;;;;13.60;99.90;;;;;;5046128;28;19917;-76
2022/12/21 04:15:03;;;;;;;;;;;13.30;99.90;;;;;;5044406;28;19948;-75
2022/12/21 04:17:28;;;;;;;;;;;13.30;99.90;;;;;;5040763;28;19913;-76
2022/12/21 04:20:00;;;;;;;;;;;13.20;99.90;;;;;;5043913;28;20296;-76
2022/12/21 04:28:07;;;;;;;;;;;13.00;99.90;;;;;;5035602;28;19971;-76
2022/12/21 04:30:33;;;;;;;;;;;12.90;99.90;;;;;;5039487;28;19909;-77
2022/12/21 04:32:59;;;;;;;;;;;13.00;99.90;;;;;;5034061;28;19994;-75
2022/12/21 04:35:24;;;;;;;;;;;13.00;99.90;;;;;;5044796;28;20600;-76
2022/12/21 04:37:50;;;;;;;;;;;13.10;99.90;;;;;;5041664;28;19924;-77
2022/12/21 04:40:15;;;;;;;;;;;13.10;99.90;;;;;;5043684;28;19916;-77
2022/12/21 04:42:41;;;;;;;;;;;13.20;99.90;;;;;;5035184;28;19966;-78
2022/12/21 04:45:06;;;;;;;;;;;13.20;99.90;;;;;;5046822;28;19936;-77
2022/12/21 04:47:32;;;;;;;;;;;13.40;99.90;;;;;;5041730;28;19909;-76
2022/12/21 04:49:57;;;;;;;;;;;13.30;99.90;;;;;;5046039;28;20291;-77
2022/12/21 04:52:23;;;;;;;;;;;13.20;99.90;;;;;;5033200;28;19913;-76
2022/12/21 04:54:48;;;;;;;;;;;12.90;99.90;;;;;;5039872;28;19922;-77
2022/12/21 04:57:14;;;;;;;;;;;13.00;99.90;;;;;;5031771;28;19925;-77
2022/12/21 04:59:39;;;;;;;;;;;13.20;99.90;;;;;;5042347;28;19909;-77
2022/12/21 05:02:05;;;;;;;;;;;13.30;99.90;;;;;;5043772;28;20349;-78
2022/12/21 05:04:30;;;;;;;;;;;13.40;99.90;;;;;;5043637;28;19928;-77
2022/12/21 05:06:56;;;;;;;;;;;13.30;99.90;;;;;;5042593;28;19943;-78
2022/12/21 05:09:22;;;;;;;;;;;13.40;99.90;;;;;;5041988;28;20019;-77
2022/12/21 05:11:48;;;;;;;;;;;13.10;99.90;;;;;;5043562;28;19909;-78
2022/12/21 05:14:13;;;;;;;;;;;13.10;99.90;;;;;;5043769;28;19922;-77
2022/12/21 05:16:39;;;;;;;;;;;13.10;99.90;;;;;;5042661;28;19924;-77
2022/12/21 05:19:04;;;;;;;;;;;13.00;99.90;;;;;;5041018;28;20011;-76
2022/12/21 05:21:30;;;;;;;;;;;13.20;99.90;;;;;;5041419;28;20008;-76
2022/12/21 05:23:57;;;;;;;;;;;13.00;99.90;;;;;;5040850;28;19910;-77
2022/12/21 05:26:22;;;;;;;;;;;13.00;99.90;;;;;;5040187;28;20470;-77
2022/12/21 05:28:48;;;;;;;;;;;13.10;99.90;;;;;;5040857;28;20624;-77
2022/12/21 05:31:14;;;;;;;;;;;13.00;99.90;;;;;;5058752;28;19915;-77
2022/12/21 05:33:40;;;;;;;;;;;12.70;99.90;;;;;;5052986;28;19951;-77
2022/12/21 05:36:07;;;;;;;;;;;12.60;99.90;;;;;;5042082;28;20283;-77
2022/12/21 05:38:33;;;;;;;;;;;12.70;99.90;;;;;;5044404;28;19909;-76
2022/12/21 05:40:58;;;;;;;;;;;12.60;99.90;;;;;;5045938;28;19935;-76
2022/12/21 05:43:24;;;;;;;;;;;12.50;99.90;;;;;;5046073;28;19909;-76
2022/12/21 05:45:50;;;;;;;;;;;12.40;99.90;;;;;;5049318;28;19919;-77
2022/12/21 05:48:16;;;;;;;;;;;12.50;99.90;;;;;;5047050;28;19909;-78
2022/12/21 05:50:41;;;;;;;;;;;12.60;99.90;;;;;;5041750;28;19916;-76
2022/12/21 05:53:08;;;;;;;;;;;12.50;99.90;;;;;;5038818;28;19909;-77
2022/12/21 05:55:33;;;;;;;;;;;12.40;99.90;;;;;;5047609;28;19920;-76
2022/12/21 05:57:59;;;;;;;;;;;12.40;99.90;;;;;;5038904;28;19913;-75
2022/12/21 06:00:25;;;;;;;;;;;12.50;99.90;;;;;;5046840;28;19927;-77
2022/12/21 06:02:50;;;;;;;;;;;12.40;99.90;;;;;;5044994;28;19975;-76
2022/12/21 06:05:16;;;;;;;;;;;12.30;99.90;;;;;;5047538;28;19954;-77
2022/12/21 06:07:41;;;;;;;;;;;12.20;99.90;;;;;;5047855;28;19917;-77
2022/12/21 06:10:07;;;;;;;;;;;12.10;99.90;;;;;;5046293;28;19916;-77
2022/12/21 06:12:33;;;;;;;;;;;12.30;99.90;;;;;;5049151;28;19987;-77
2022/12/21 06:14:58;;;;;;;;;;;12.20;99.90;;;;;;5048066;28;20378;-75
2022/12/21 06:17:27;;;;;;;;;;;12.20;99.90;;;;;;5038085;28;19909;-79
2022/12/21 06:19:53;;;;;;;;;;;12.10;99.90;;;;;;5045356;28;20156;-77
2022/12/21 06:22:19;;;;;;;;;;;12.10;99.90;;;;;;5043796;28;19967;-77
2022/12/21 06:24:44;;;;;;;;;;;12.10;99.90;;;;;;5038392;28;20454;-76
2022/12/21 06:27:09;;;;;;;;;;;12.10;99.90;;;;;;5040605;28;20373;-76
2022/12/21 06:29:35;;;;;;;;;;;11.90;99.90;;;;;;5046037;28;19923;-77
2022/12/21 06:32:00;;;;;;;;;;;11.90;99.90;;;;;;5048438;28;19917;-76
2022/12/21 06:34:26;;;;;;;;;;;11.90;99.90;;;;;;5049962;28;19916;-77
2022/12/21 06:36:52;;;;;;;;;;;11.80;99.90;;;;;;5048988;28;20291;-76
2022/12/21 06:39:17;;;;;;;;;;;11.90;99.90;;;;;;5043646;28;19924;-76
2022/12/21 06:41:43;;;;;;;;;;;11.80;99.90;;;;;;5046203;28;19913;-75
2022/12/21 06:44:08;;;;;;;;;;;11.90;99.90;;;;;;5043314;28;19973;-72
2022/12/21 06:46:34;;;;;;;;;;;11.70;99.90;;;;;;5043441;28;19971;-72
2022/12/21 06:49:00;;;;;;;;;;;11.80;99.90;;;;;;5040952;28;19916;-72
2022/12/21 06:51:25;;;;;;;;;;;11.60;99.90;;;;;;5048113;28;20156;-73
2022/12/21 06:53:52;;;;;;;;;;;11.50;99.90;;;;;;5051560;28;19995;-73
2022/12/21 06:56:19;;;;;;;;;;;11.50;99.90;;;;;;5052287;28;19928;-73
2022/12/21 06:58:44;;;;;;;;;;;11.60;99.90;;;;;;5048119;28;19923;-73
2022/12/21 07:01:30;;;;;;;;;;;11.50;99.90;;;;;;5048685;28;19972;-73
2022/12/21 07:03:56;;;;;;;;;;;11.30;99.90;;;;;;5045603;28;20004;-75
2022/12/21 07:06:22;;;;;;;;;;;11.20;99.90;;;;;;5046453;28;20012;-74
2022/12/21 07:08:48;;;;;;;;;;;11.40;99.90;;;;;;5047307;28;19963;-73
2022/12/21 07:11:15;;;;;;;;;;;11.10;99.90;;;;;;5047799;28;20441;-75
2022/12/21 07:13:41;;;;;;;;;;;11.30;99.90;;;;;;5044152;28;19913;-73
2022/12/21 07:16:07;;;;;;;;;;;11.10;99.90;;;;;;5047548;28;19916;-73
2022/12/21 07:18:34;;;;;;;;;;;11.10;99.90;;;;;;5046813;28;19917;-75
2022/12/21 07:21:02;;;;;;;;;;;11.10;99.90;;;;;;5047178;28;19924;-70
2022/12/21 07:23:28;;;;;;;;;;;11.20;99.90;;;;;;5041117;28;20223;-72
2022/12/21 07:25:54;;;;;;;;;;;11.30;99.90;;;;;;5040260;28;20000;-74
2022/12/21 07:28:20;;;;;;;;;;;11.20;99.90;;;;;;5037364;28;19986;-75
2022/12/21 07:30:48;;;;;;;;;;;11.40;99.90;;;;;;5044358;28;19912;-73
2022/12/21 07:33:18;;;;;;;;;;;11.60;99.90;;;;;;5042754;28;19982;-73
2022/12/21 07:35:43;;;;;;;;;;;11.60;99.90;;;;;;5043599;28;19917;-72
2022/12/21 07:38:09;;;;;;;;;;;11.60;99.90;;;;;;5043549;28;19917;-73
2022/12/21 07:40:34;;;;;;;;;;;11.70;99.90;;;;;;5043999;28;19912;-72
2022/12/21 07:43:00;;;;;;;;;;;11.80;99.90;;;;;;5040838;28;20378;-72
2022/12/21 07:45:26;;;;;;;;;;;11.60;99.90;;;;;;5044870;28;20306;-75
2022/12/21 07:47:54;;;;;;;;;;;11.90;99.90;;;;;;5042558;28;19917;-75
2022/12/21 07:50:20;;;;;;;;;;;11.80;99.90;;;;;;5042505;28;20007;-74
2022/12/21 07:52:46;;;;;;;;;;;12.00;99.90;;;;;;5041985;28;20068;-74
2022/12/21 07:55:11;;;;;;;;;;;11.90;99.90;;;;;;5043638;28;19924;-71
2022/12/21 07:57:37;;;;;;;;;;;12.00;99.90;;;;;;5041252;28;19962;-74
2022/12/21 08:00:03;;;;;;;;;;;12.00;99.90;;;;;;5039060;28;19967;-72
2022/12/21 08:02:28;;;;;;;;;;;12.20;99.90;;;;;;5038537;28;20000;-72
2022/12/21 08:04:54;;;;;;;;;;;12.20;99.90;;;;;;5043329;28;20011;-71
2022/12/21 08:07:19;;;;;;;;;;;12.40;99.90;;;;;;5044180;28;20296;-75
2022/12/21 08:09:45;;;;;;;;;;;12.30;99.90;;;;;;5047114;28;20308;-74
2022/12/21 08:12:11;;;;;;;;;;;12.40;99.90;;;;;;5041903;28;19917;-73
2022/12/21 08:14:36;;;;;;;;;;;12.40;99.90;;;;;;5042487;28;19962;-74
2022/12/21 08:17:02;;;;;;;;;;;12.20;99.90;;;;;;5036659;28;19916;-73
2022/12/21 08:19:27;;;;;;;;;;;12.30;99.90;;;;;;5045739;28;19923;-74
2022/12/21 08:21:53;;;;;;;;;;;12.10;99.90;;;;;;5043945;28;19925;-74
2022/12/21 08:24:18;;;;;;;;;;;12.30;99.90;;;;;;5036798;28;19967;-74
2022/12/21 08:26:44;;;;;;;;;;;12.20;99.90;;;;;;5032162;28;20011;-74
2022/12/21 08:29:13;;;;;;;;;;;12.20;99.90;;;;;;5027633;28;19910;-73
2022/12/21 08:31:39;;;;;;;;;;;12.30;99.90;;;;;;5040377;28;20286;-74
2022/12/21 08:34:05;;;;;;;;;;;12.30;99.90;;;;;;5030919;28;20374;-74
2022/12/21 08:36:30;;;;;;;;;;;12.40;99.90;;;;;;5038130;28;19913;-75
2022/12/21 08:38:56;;;;;;;;;;;12.60;99.90;;;;;;5038483;28;19916;-73
2022/12/21 08:41:22;;;;;;;;;;;12.40;99.90;;;;;;5033206;28;19920;-74
2022/12/21 08:43:47;;;;;;;;;;;12.60;99.90;;;;;;5035122;28;19913;-74
2022/12/21 08:46:13;;;;;;;;;;;12.50;99.90;;;;;;5045335;28;20405;-75
2022/12/21 08:48:39;;;;;;;;;;;12.60;99.90;;;;;;5043825;28;19965;-74
2022/12/21 08:51:04;;;;;;;;;;;12.40;99.90;;;;;;5036889;28;20010;-74
2022/12/21 08:53:30;;;;;;;;;;;12.60;99.90;;;;;;5047911;28;19919;-73
2022/12/21 08:55:56;;;;;;;;;;;12.70;99.90;;;;;;5042214;28;19920;-74
2022/12/21 08:58:22;;;;;;;;;;;12.90;99.90;;;;;;5031864;28;20046;-75
2022/12/21 09:00:50;;;;;;;;;;;12.70;99.90;;;;;;5041850;28;19909;-74
2022/12/21 09:03:15;;;;;;;;;;;12.80;99.90;;;;;;5030349;28;19921;-75
2022/12/21 09:05:41;;;;;;;;;;;13.00;99.90;;;;;;5040396;28;19920;-74
2022/12/21 09:08:06;;;;;;;;;;;13.30;99.90;;;;;;5032075;28;20346;-73
2022/12/21 09:10:33;;;;;;;;;;;13.20;99.90;;;;;;5045236;28;20316;-75
2022/12/21 09:12:58;;;;;;;;;;;13.00;99.90;;;;;;5047172;28;19908;-75
2022/12/21 09:15:24;;;;;;;;;;;12.90;99.90;;;;;;5049311;28;19986;-73
2022/12/21 09:17:50;;;;;;;;;;;13.00;99.90;;;;;;5042040;28;19909;-74
2022/12/21 09:20:16;;;;;;;;;;;13.10;99.90;;;;;;5048662;28;19908;-75
2022/12/21 09:22:41;;;;;;;;;;;13.00;99.90;;;;;;5041070;28;20015;-76
2022/12/21 09:25:08;;;;;;;;;;;13.00;99.90;;;;;;5044871;28;19956;-74
2022/12/21 09:27:34;;;;;;;;;;;13.20;99.90;;;;;;5038870;28;19909;-76
2022/12/21 09:29:59;;;;;;;;;;;13.20;99.90;;;;;;5044074;28;19919;-73
2022/12/21 09:32:25;;;;;;;;;;;13.30;99.90;;;;;;5046187;28;20291;-73
2022/12/21 09:34:50;;;;;;;;;;;13.10;99.90;;;;;;5046693;28;19919;-75
2022/12/21 09:37:16;;;;;;;;;;;13.20;99.90;;;;;;5043886;28;19916;-74
2022/12/21 09:39:42;;;;;;;;;;;13.00;99.90;;;;;;5045359;28;20003;-74
2022/12/21 09:42:21;;;;;;;;;;;13.10;99.90;;;;;;5044940;28;20349;-76
2022/12/21 09:45:06;;;;;;;;;;;12.90;99.90;;;;;;5040682;28;19920;-74
2022/12/21 09:47:40;;;;;;;;;;;13.10;99.90;;;;;;5031480;28;19920;-75
2022/12/21 09:50:10;;;;;;;;;;;12.90;99.90;;;;;;5042867;28;19979;-73
2022/12/21 09:52:42;;;;;;;;;;;13.00;99.90;;;;;;5044549;28;19956;-74
2022/12/21 09:55:18;;;;;;;;;;;13.00;99.90;;;;;;5045749;28;19913;-76
2022/12/21 09:57:44;;;;;;;;;;;13.00;99.90;;;;;;5039973;28;19935;-74
2022/12/21 10:00:14;;;;;;;;;;;13.00;99.90;;;;;;5039034;28;19914;-73
2022/12/21 10:03:09;;;;;;;;;;;12.90;99.90;;;;;;5034399;28;19998;-75
2022/12/21 10:05:43;;;;;;;;;;;12.80;99.90;;;;;;5034456;28;19992;-74
2022/12/21 10:08:14;;;;;;;;;;;12.80;99.90;;;;;;5041157;28;19916;-74
2022/12/21 10:10:44;;;;;;;;;;;13.00;99.90;;;;;;5036682;28;20012;-74
2022/12/21 10:13:19;;;;;;;;;;;13.00;99.90;;;;;;5046793;28;19916;-76
2022/12/21 10:16:03;;;;;;;;;;;12.90;99.90;;;;;;5036668;28;19960;-75
2022/12/21 10:18:47;;;;;;;;;;;13.00;99.90;;;;;;5035932;28;19909;-72
2022/12/21 10:21:22;;;;;;;;;;;13.10;99.90;;;;;;5050798;28;19979;-74
2022/12/21 10:23:49;;;;;;;;;;;13.00;99.90;;;;;;5033075;28;20027;-73
2022/12/21 10:26:16;;;;;;;;;;;13.20;99.90;;;;;;5041453;28;20552;-74
2022/12/21 10:29:01;;;;;;;;;;;13.30;99.90;;;;;;5047612;28;19920;-74
2022/12/21 10:31:26;;;;;;;;;;;13.20;99.90;;;;;;5044225;28;19913;-74
2022/12/21 10:33:53;;;;;;;;;;;13.30;99.90;;;;;;5036611;28;20308;-74
2022/12/21 10:36:22;;;;;;;;;;;13.40;99.90;;;;;;5042690;28;20385;-74
2022/12/21 10:38:47;;;;;;;;;;;13.30;99.90;;;;;;5038571;28;20004;-75
2022/12/21 10:41:19;;;;;;;;;;;13.40;99.90;;;;;;5048635;28;20007;-75
2022/12/21 10:43:48;;;;;;;;;;;13.50;99.90;;;;;;5047432;28;20471;-73
2022/12/21 10:46:18;;;;;;;;;;;13.50;99.90;;;;;;5035843;28;19909;-75
2022/12/21 10:48:45;;;;;;;;;;;13.60;99.90;;;;;;5043054;28;19912;-73
2022/12/21 10:51:25;;;;;;;;;;;13.70;99.90;;;;;;5037002;28;19909;-75
2022/12/21 10:54:03;;;;;;;;;;;13.70;99.90;;;;;;5038498;28;19935;-76
2022/12/21 10:56:29;;;;;;;;;;;13.80;99.90;;;;;;5045380;28;20380;-75
2022/12/21 10:58:59;;;;;;;;;;;13.90;99.90;;;;;;5047422;28;19931;-73
2022/12/21 11:01:29;;;;;;;;;;;13.90;99.90;;;;;;5037605;28;20012;-74
2022/12/21 11:04:07;;;;;;;;;;;14.00;99.90;;;;;;5036309;28;19944;-75
2022/12/21 11:06:33;;;;;;;;;;;13.90;99.90;;;;;;5036827;28;19913;-75
2022/12/21 11:08:58;;;;;;;;;;;14.00;99.90;;;;;;5037234;28;19916;-73
2022/12/21 11:11:35;;;;;;;;;;;13.90;99.90;;;;;;5037394;28;19913;-75
2022/12/21 11:14:16;;;;;;;;;;;14.00;99.90;;;;;;5038911;28;19967;-73
2022/12/21 11:16:43;;;;;;;;;;;14.10;99.90;;;;;;5040265;28;19960;-75
2022/12/21 11:19:11;;;;;;;;;;;14.10;99.90;;;;;;5041596;28;19913;-74
2022/12/21 11:21:38;;;;;;;;;;;14.20;99.90;;;;;;5043751;28;20486;-72
2022/12/21 11:24:23;;;;;;;;;;;14.10;99.90;;;;;;5058798;28;19919;-74
2022/12/21 11:26:51;;;;;;;;;;;14.10;99.90;;;;;;5047619;28;20386;-74
2022/12/21 11:29:27;;;;;;;;;;;14.20;99.90;;;;;;5049133;28;19944;-75
2022/12/21 11:31:53;;;;;;;;;;;14.20;99.90;;;;;;5039092;28;19919;-72
2022/12/21 11:34:31;;;;;;;;;;;14.20;99.90;;;;;;5043125;28;19983;-74
2022/12/21 11:37:00;;;;;;;;;;;14.20;99.90;;;;;;5047726;28;19966;-74
2022/12/21 11:39:26;;;;;;;;;;;14.30;99.90;;;;;;5040167;28;19917;-75
2022/12/21 11:41:52;;;;;;;;;;;14.30;99.90;;;;;;5038882;28;19959;-73
2022/12/21 11:44:29;;;;;;;;;;;14.30;99.90;;;;;;5045368;28;20702;-74
2022/12/21 11:46:55;;;;;;;;;;;14.40;99.90;;;;;;5047697;28;19909;-72
2022/12/21 11:49:29;;;;;;;;;;;14.40;99.90;;;;;;5044457;28;19952;-74
2022/12/21 11:51:59;;;;;;;;;;;14.40;99.90;;;;;;5042335;28;19916;-73
2022/12/21 11:54:43;;;;;;;;;;;14.30;99.90;;;;;;5036263;28;19909;-73
2022/12/21 11:57:33;;;;;;;;;;;14.30;99.90;;;;;;5040680;28;19913;-74
2022/12/21 12:00:03;;;;;;;;;;;14.40;99.90;;;;;;5046068;28;19959;-73
2022/12/21 12:02:34;;;;;;;;;;;14.40;99.90;;;;;;5049000;28;19936;-71
2022/12/21 12:05:12;;;;;;;;;;;14.40;99.90;;;;;;5042880;28;20369;-74
2022/12/21 12:07:54;;;;;;;;;;;14.40;99.90;;;;;;5048345;28;19909;-73
2022/12/21 12:10:38;;;;;;;;;;;14.40;99.90;;;;;;5052881;28;19912;-73
2022/12/21 12:13:07;;;;;;;;;;;14.40;99.90;;;;;;5051268;28;20191;-73
2022/12/21 12:15:45;;;;;;;;;;;14.40;99.90;;;;;;5045482;28;19967;-73
2022/12/21 12:18:26;;;;;;;;;;;14.30;99.90;;;;;;5051891;28;19967;-73
2022/12/21 12:21:14;;;;;;;;;;;14.40;99.90;;;;;;5033295;28;19910;-73
2022/12/21 12:23:43;;;;;;;;;;;14.40;99.90;;;;;;5039424;28;19948;-74
2022/12/21 12:26:20;;;;;;;;;;;14.30;99.90;;;;;;5046564;28;19944;-76
2022/12/21 12:28:49;;;;;;;;;;;14.20;99.90;;;;;;5049515;28;19984;-75
2022/12/21 12:31:33;;;;;;;;;;;14.10;99.90;;;;;;5042127;28;19936;-74
2022/12/21 12:34:08;;;;;;;;;;;14.10;99.90;;;;;;5033750;28;19996;-75
2022/12/21 12:36:52;;;;;;;;;;;14.00;99.90;;;;;;5045326;28;19958;-73
2022/12/21 12:39:26;;;;;;;;;;;13.90;99.90;;;;;;5039639;28;19917;-76
2022/12/21 12:42:01;;;;;;;;;;;13.90;99.90;;;;;;5034067;28;19920;-75
2022/12/21 12:44:33;;;;;;;;;;;13.90;99.90;;;;;;5044785;28;19924;-74
2022/12/21 12:47:01;;;;;;;;;;;13.80;99.90;;;;;;5034271;28;19909;-75
2022/12/21 12:49:56;;;;;;;;;;;13.70;99.90;;;;;;5044937;28;20008;-75
2022/12/21 12:52:45;;;;;;;;;;;13.60;99.90;;;;;;5027521;28;19917;-74
2022/12/21 12:55:18;;;;;;;;;;;13.50;99.90;;;;;;5030723;28;19913;-74
2022/12/21 12:57:53;;;;;;;;;;;13.50;99.90;;;;;;5039495;28;19909;-76
2022/12/21 13:00:18;;;;;;;;;;;13.30;99.90;;;;;;5039438;28;20416;-74
2022/12/21 13:03:03;;;;;;;;;;;13.20;99.90;;;;;;5033287;28;19921;-76
2022/12/21 13:05:32;;;;;;;;;;;13.00;99.90;;;;;;5047439;28;19909;-74
2022/12/21 13:08:03;;;;;;;;;;;13.00;99.90;;;;;;5050202;28;19966;-74
2022/12/21 13:10:41;;;;;;;;;;;12.80;99.90;;;;;;5047224;28;19909;-74
2022/12/21 13:13:31;;;;;;;;;;;12.80;99.90;;;;;;5042923;28;19913;-73
2022/12/21 13:16:02;;;;;;;;;;;12.90;99.90;;;;;;5051719;28;19921;-75
2022/12/21 13:18:37;;;;;;;;;;;12.70;99.90;;;;;;5035294;28;19921;-75
2022/12/21 13:21:03;;;;;;;;;;;12.70;99.90;;;;;;5049670;28;19913;-74
2022/12/21 13:23:34;;;;;;;;;;;12.60;99.90;;;;;;5049993;28;19915;-73
2022/12/21 13:26:02;;;;;;;;;;;12.50;99.90;;;;;;5043329;28;19916;-72
2022/12/21 13:28:54;;;;;;;;;;;12.40;99.90;;;;;;5046483;28;19920;-75
2022/12/21 13:31:22;;;;;;;;;;;12.40;99.90;;;;;;5037811;28;19924;-74
2022/12/21 13:33:53;;;;;;;;;;;12.30;99.90;;;;;;5044986;28;20387;-76
2022/12/21 13:36:20;;;;;;;;;;;12.20;99.90;;;;;;5038104;28;20863;-75
2022/12/21 13:39:02;;;;;;;;;;;12.00;99.90;;;;;;5045591;28;19916;-75
2022/12/21 13:41:39;;;;;;;;;;;12.00;99.90;;;;;;5041625;28;19909;-74
2022/12/21 13:44:17;;;;;;;;;;;11.90;99.90;;;;;;5040463;28;19913;-75
2022/12/21 13:46:43;;;;;;;;;;;11.90;99.90;;;;;;5041074;28;19938;-76
2022/12/21 13:49:27;;;;;;;;;;;11.80;99.90;;;;;;5043962;28;20000;-75
2022/12/21 13:51:55;;;;;;;;;;;11.60;99.90;;;;;;5043076;28;19921;-74
2022/12/21 13:54:26;;;;;;;;;;;11.50;99.90;;;;;;5040216;28;19913;-75
2022/12/21 13:56:52;;;;;;;;;;;11.50;99.90;;;;;;5049371;28;20349;-76
2022/12/21 13:59:17;;;;;;;;;;;11.50;99.90;;;;;;5042678;28;19913;-77
2022/12/21 14:02:06;;;;;;;;;;;11.50;99.90;;;;;;5040304;28;19913;-75
2022/12/21 14:04:40;;;;;;;;;;;11.50;99.90;;;;;;5040389;28;19982;-74
2022/12/21 14:07:32;;;;;;;;;;;11.50;99.90;;;;;;5038304;28;19995;-75
2022/12/21 14:10:10;;;;;;;;;;;11.40;99.90;;;;;;5052277;28;19932;-75
2022/12/21 14:12:42;;;;;;;;;;;11.40;99.90;;;;;;5050473;28;19944;-76
2022/12/21 14:15:14;;;;;;;;;;;11.40;99.90;;;;;;5033221;28;19909;-76
2022/12/21 14:17:47;;;;;;;;;;;11.40;99.90;;;;;;5052036;28;19909;-76
2022/12/21 14:20:27;;;;;;;;;;;11.40;99.90;;;;;;5053086;28;19916;-75
2022/12/21 14:22:54;;;;;;;;;;;11.30;99.90;;;;;;5054342;28;19920;-75
2022/12/21 14:25:22;;;;;;;;;;;11.40;99.90;;;;;;5048282;28;20027;-75
2022/12/21 14:28:18;;;;;;;;;;;11.40;99.90;;;;;;5052902;28;19991;-75
2022/12/21 14:30:52;;;;;;;;;;;11.40;99.90;;;;;;5035147;28;19948;-74
2022/12/21 14:33:21;;;;;;;;;;;11.30;99.90;;;;;;5039633;28;20584;-75
2022/12/21 14:36:06;;;;;;;;;;;11.30;99.90;;;;;;5046177;28;20008;-75